[x] [x]
.:Aeroklub Partizánske:. |  .:Fotogaléria:. |  .:Videogaléria:. |  .:Foto týždňa:. |  .:Kniha návštev:. |  .:Linky:. |  .:Moje konto:.
 MENU [x]

 METEO [x]

 FotoGaléria [x]

 Slnko [x]
LZPT Partizánske
48°37'N 18°20'E
Východ: 7:15 AM
Západ: 5:47 PM
LZIB Bratislava
48°10'N 17°12'E
Východ: 7:19 AM
Západ: 5:52 PM
LZKZ Košice
48°39'N 21°14'E
Východ: 7:04 AM
Západ: 5:35 PM

 Jazyky [x]
Vyberte jazyk rozhrania:

Slovak English German Polish


  SPRÁVY METAR - ČESKÁ REPUBLIKA
Brno-TuřanyLKTB 221330Z 29013KT 9999 FEW026 BKN030 09/04 Q1005 NOSIGdekóduj
ČáslavLKCV 221300Z 27012KT 9999 -RA BKN025 OVC030 07/06 Q1006 NOSIG RMK BLU BLUdekóduj
HolešovLKHO 010800Z VRB03KT CAVOK 23/17 Q1019dekóduj
Hradec Královedekóduj
Karlovy VaryLKKV 221330Z 27013G23KT 240V300 9999 -RA BKN008 BKN016 04/03 Q1007dekóduj
KunoviceLKKU 221300Z 32005KT 260V010 9999 -RA FEW025 SCT045 09/06 Q1005 RMK REG QNH 1002dekóduj
LiberecLKLB 020602Z 16003KT 9999 FEW016 BKN043 M01/M02 Q1016dekóduj
Mariánsky Láznědekóduj
Náměšť nad OslavouLKNA 221300Z 30018KT 9999 BKN020 BKN040 07/04 Q1005 NOSIG RMK WHT WHTdekóduj
Ostrava-MošnovLKMT 221330Z 13003KT 9999 -RA OVC025 07/06 Q1004 NOSIGdekóduj
PardubiceLKPD 221325Z 26013KT 9999 -RA SCT013 BKN023 OVC030 07/05 Q1006 RMK WHTdekóduj
Praha-KbelyLKKB 221300Z 25007KT 5000 -RA SCT024 OVC028 06/05 Q1006 NOSIGdekóduj
Praha-RuzyněLKPR 221330Z 26014KT 9999 -RA SCT020 OVC027 07/04 Q1006 NOSIGdekóduj
PřerovLKPO 010000Z 05005KT CAVOK 04/01 Q1013dekóduj
 FreeFly INFO [x]
COROWA 2009


COROWA 2009


COROWA 2009



 LZPT webcam [x]

 Foto týždňa [x]

 KBO SNA [x]

 Login [x]
Užívateľské meno

Heslo


Ešte nemáš konto? Môžeš si ho vytvoriť. Registrovaný užívateľ má množstvo výhod, napr. posielanie okamžitých správ iným užívateľom, posielanie komentárov s vlastným menom, možnosť pridávať fotografie do galérie...

 Kto je online [x]
Momentálne je online 27 hostí a 0 členov.

Ste anonymný užívateľ. Zaregistrovať sa môžete tu

DETAILY

 Linky [x]

 Počítadlo návštev [x]
Zaznamenali sme
34063690
strán zobrazených od júna 2003

Počet dnešných unikátnych IP adries:
0



www.freefly.sk
Powered by SzMsoft ©2003-2005. Polish translations by Cezary Dąbek. Flying server www.freefly.sk is administrated by maro@freefly.sk - www.artweb.freefly.sk
PHP-Nuke Copyright © 2004 by Francisco Burzi. This is free software, and you may redistribute it under the GPL. PHP-Nuke comes with absolutely no warranty, for details, see the license.